Time;durP1;ratioP1;P1;durP2;ratioP2;P2;SDS_P1;SDS_P2;PMS_P1;PMS_P2;Temp;Humidity;BMP_temperature;BMP_pressure;BME280_temperature;BME280_humidity;BME280_pressure;Samples;Min_cycle;Max_cycle;Signal;HPM_P1;HPM_P2
2022/12/10 00:00:11;;;;;;;60.75;26.05;;;6.30;72.80;;;;;;7385106;19;20044;-85
2022/12/10 00:02:40;;;;;;;67.20;28.23;;;6.20;72.60;;;;;;7408012;19;20017;-86
2022/12/10 00:05:09;;;;;;;69.40;29.02;;;6.20;72.70;;;;;;7382984;19;20043;-86
2022/12/10 00:07:38;;;;;;;63.67;28.63;;;6.10;73.10;;;;;;7385402;19;20022;-87
2022/12/10 00:10:08;;;;;;;61.80;27.60;;;6.10;73.10;;;;;;7392953;19;20039;-86
2022/12/10 00:12:39;;;;;;;55.53;26.42;;;6.00;73.30;;;;;;7398309;19;20025;-84
2022/12/10 00:15:08;;;;;;;;;;;6.00;73.60;;;;;;7391138;19;20018;-85
2022/12/10 00:17:37;;;;;;;71.63;28.23;;;6.00;73.80;;;;;;7406982;19;19923;-85
2022/12/10 00:20:07;;;;;;;269.40;34.88;;;5.90;73.60;;;;;;7384919;19;20460;-86
2022/12/10 00:22:36;;;;;;;68.93;29.25;;;5.80;75.10;;;;;;7384060;19;20014;-86
2022/12/10 00:25:06;;;;;;;80.20;29.90;;;5.60;75.00;;;;;;7384054;19;20058;-85
2022/12/10 00:27:35;;;;;;;78.30;29.88;;;5.60;74.90;;;;;;7389224;19;20010;-85
2022/12/10 00:30:07;;;;;;;67.43;28.80;;;5.70;75.20;;;;;;7381290;19;20333;-87
2022/12/10 00:32:36;;;;;;;63.35;27.92;;;5.70;75.50;;;;;;7407077;19;20047;-87
2022/12/10 00:35:05;;;;;;;68.15;28.30;;;5.80;75.80;;;;;;7383589;19;20022;-86
2022/12/10 00:37:35;;;;;;;71.30;29.33;;;5.80;75.50;;;;;;7381838;19;20006;-87
2022/12/10 00:40:04;;;;;;;154.27;32.67;;;5.90;75.40;;;;;;7380775;19;20447;-86
2022/12/10 00:42:33;;;;;;;63.47;28.02;;;5.90;75.70;;;;;;7382918;19;20062;-87
2022/12/10 00:45:01;;;;;;;74.70;28.02;;;6.00;75.20;;;;;;7382316;19;20018;-86
2022/12/10 00:47:33;;;;;;;75.85;27.83;;;6.00;75.00;;;;;;7404380;19;20014;-87
2022/12/10 00:50:01;;;;;;;;;;;6.00;74.80;;;;;;7385120;19;20019;-87
2022/12/10 00:52:30;;;;;;;58.65;26.48;;;6.10;74.60;;;;;;7383279;19;20319;-86
2022/12/10 00:54:59;;;;;;;74.57;27.60;;;6.00;73.80;;;;;;7382851;19;20361;-85
2022/12/10 00:57:28;;;;;;;73.97;30.52;;;6.00;73.10;;;;;;7378157;19;20039;-86
2022/12/10 00:59:57;;;;;;;68.10;29.38;;;5.90;72.90;;;;;;7382181;19;20022;-86
2022/12/10 01:02:26;;;;;;;68.90;27.70;;;5.90;73.50;;;;;;7409519;19;20434;-82
2022/12/10 01:04:58;;;;;;;63.88;27.63;;;5.90;73.60;;;;;;7377499;19;20733;-86
2022/12/10 01:07:26;;;;;;;74.80;28.10;;;5.90;73.40;;;;;;7387081;19;20741;-84
2022/12/10 01:09:55;;;;;;;59.42;27.55;;;6.00;73.50;;;;;;7378126;19;20022;-84
2022/12/10 01:12:24;;;;;;;1194.18;107.88;;;6.00;73.60;;;;;;7381533;19;20389;-84
2022/12/10 01:14:53;;;;;;;73.57;29.27;;;6.10;74.10;;;;;;7379433;19;20018;-85
2022/12/10 01:17:22;;;;;;;66.47;27.67;;;6.10;74.60;;;;;;7405172;19;20452;-79
2022/12/10 01:19:51;;;;;;;66.10;28.50;;;6.10;74.60;;;;;;7381536;19;20526;-84
2022/12/10 01:22:23;;;;;;;68.72;29.40;;;6.20;74.50;;;;;;7389813;19;20612;-83
2022/12/10 01:24:52;;;;;;;72.78;30.40;;;6.30;74.40;;;;;;7388600;19;20018;-84
2022/12/10 01:27:21;;;;;;;67.13;29.52;;;6.30;74.20;;;;;;7387715;19;20019;-85
2022/12/10 01:29:50;;;;;;;65.07;27.73;;;6.40;74.20;;;;;;7400575;19;20039;-84
2022/12/10 01:32:18;;;;;;;64.45;28.85;;;6.40;74.00;;;;;;7408015;19;20348;-85
2022/12/10 01:34:47;;;;;;;71.63;29.50;;;6.50;73.90;;;;;;7386604;19;20039;-85
2022/12/10 01:37:16;;;;;;;404.05;43.28;;;6.50;73.60;;;;;;7388190;19;20010;-85
2022/12/10 01:39:48;;;;;;;78.00;31.50;;;6.40;73.80;;;;;;7386496;19;20014;-84
2022/12/10 01:42:17;;;;;;;76.68;31.33;;;6.40;74.50;;;;;;7385869;19;20443;-85
2022/12/10 01:45:06;;;;;;;74.68;30.17;;;6.40;74.40;;;;;;7406531;19;20014;-84
2022/12/10 01:47:36;;;;;;;82.07;31.70;;;6.30;74.60;;;;;;7383174;19;20035;-84
2022/12/10 01:50:06;;;;;;;77.72;31.67;;;6.30;75.00;;;;;;7384441;19;20371;-84
2022/12/10 01:52:34;;;;;;;78.45;32.08;;;6.30;75.10;;;;;;7385099;19;20013;-85
2022/12/10 01:55:11;;;;;;;74.00;32.50;;;6.40;75.30;;;;;;7376720;19;20051;-85
2022/12/10 01:57:40;;;;;;;77.10;32.33;;;6.40;75.40;;;;;;7378726;19;20011;-85
2022/12/10 02:00:10;;;;;;;80.13;31.58;;;6.50;75.60;;;;;;7377801;19;20023;-84
2022/12/10 02:02:47;;;;;;;79.82;31.05;;;6.50;75.50;;;;;;7401416;19;20015;-85
2022/12/10 02:05:25;;;;;;;80.90;32.08;;;6.50;75.10;;;;;;7377594;19;20011;-84
2022/12/10 02:08:08;;;;;;;83.43;33.78;;;6.50;75.30;;;;;;7377117;19;20031;-85
2022/12/10 02:10:52;;;;;;;83.68;32.97;;;6.50;75.30;;;;;;7381292;19;20019;-85
2022/12/10 02:13:26;;;;;;;87.43;32.72;;;6.60;75.20;;;;;;7382862;19;20035;-84
2022/12/10 02:16:00;;;;;;;88.78;34.08;;;6.60;75.30;;;;;;7384453;19;20323;-85
2022/12/10 02:18:34;;;;;;;84.05;32.75;;;6.70;75.60;;;;;;7384773;19;20007;-85
2022/12/10 02:21:08;;;;;;;87.80;33.10;;;6.70;75.50;;;;;;7379751;19;20035;-84
2022/12/10 02:23:41;;;;;;;87.65;34.53;;;6.70;75.30;;;;;;7401401;19;20031;-84
2022/12/10 02:26:18;;;;;;;83.18;33.45;;;6.70;75.20;;;;;;7379454;19;20027;-84
2022/12/10 02:28:54;;;;;;;79.72;32.20;;;6.60;75.00;;;;;;7380382;19;20014;-84
2022/12/10 02:31:31;;;;;;;91.82;33.25;;;6.70;75.20;;;;;;7380843;19;20014;-84
2022/12/10 02:34:04;;;;;;;90.22;33.25;;;6.60;75.20;;;;;;7380717;19;20027;-84
2022/12/10 02:36:36;;;;;;;84.00;32.88;;;6.70;75.40;;;;;;7378521;19;20010;-84
2022/12/10 02:39:08;;;;;;;87.57;33.38;;;6.70;75.50;;;;;;7377188;19;20031;-84
2022/12/10 02:41:40;;;;;;;85.35;32.38;;;6.80;75.50;;;;;;7395939;19;20019;-84
2022/12/10 02:44:13;;;;;;;84.38;31.15;;;6.80;75.20;;;;;;7373414;19;20479;-84
2022/12/10 02:46:48;;;;;;;82.50;32.47;;;6.80;75.00;;;;;;7372856;19;20094;-84
2022/12/10 02:49:18;;;;;;;88.07;32.67;;;6.90;75.00;;;;;;7372550;19;20064;-84
2022/12/10 02:51:47;;;;;;;89.13;32.03;;;6.90;75.00;;;;;;7374111;19;20024;-84
2022/12/10 02:54:39;;;;;;;74.82;31.83;;;6.90;75.10;;;;;;7374315;19;20089;-84
2022/12/10 02:57:18;;;;;;;80.85;31.85;;;6.90;75.10;;;;;;7373917;19;20089;-84
2022/12/10 03:00:02;;;;;;;80.72;31.85;;;6.80;74.90;;;;;;7394872;19;20034;-83
2022/12/10 03:02:43;;;;;;;78.97;31.63;;;6.70;74.90;;;;;;7373013;19;20597;-84
2022/12/10 03:05:18;;;;;;;76.97;29.80;;;6.70;75.60;;;;;;7370897;19;20094;-83
2022/12/10 03:07:52;;;;;;;78.32;29.77;;;6.70;75.70;;;;;;7372214;19;20011;-83
2022/12/10 03:10:29;;;;;;;771.33;56.47;;;6.70;76.20;;;;;;7371061;19;20038;-83
2022/12/10 03:13:02;;;;;;;80.22;31.58;;;6.70;76.20;;;;;;7372657;19;20011;-81
2022/12/10 03:15:36;;;;;;;82.35;31.50;;;6.80;76.50;;;;;;7371644;19;20014;-82
2022/12/10 03:18:10;;;;;;;78.93;30.02;;;6.80;76.30;;;;;;7372198;19;20040;-82
2022/12/10 03:20:42;;;;;;;76.03;30.00;;;6.80;76.00;;;;;;7397125;19;20395;-82
2022/12/10 03:23:14;;;;;;;84.38;31.20;;;6.80;75.90;;;;;;7378023;19;20026;-82
2022/12/10 03:25:43;;;;;;;78.63;30.45;;;6.80;75.80;;;;;;7375848;19;20094;-84
2022/12/10 03:28:12;;;;;;;76.45;28.13;;;6.80;75.80;;;;;;7380774;19;20102;-84
2022/12/10 03:30:43;;;;;;;75.22;28.92;;;6.80;75.90;;;;;;7379201;19;20031;-84
2022/12/10 03:33:15;;;;;;;84.63;29.92;;;6.70;76.30;;;;;;7377681;19;20026;-84
2022/12/10 03:35:44;;;;;;;74.85;29.73;;;6.70;76.20;;;;;;7402695;19;20031;-84
2022/12/10 03:38:14;;;;;;;72.13;29.85;;;6.70;76.20;;;;;;7381347;19;20098;-83
2022/12/10 03:40:42;;;;;;;86.13;29.38;;;6.80;76.30;;;;;;7382768;19;20385;-84
2022/12/10 03:43:14;;;;;;;77.97;28.52;;;6.80;76.20;;;;;;7383399;19;20054;-84
2022/12/10 03:45:43;;;;;;;82.50;29.55;;;6.80;76.00;;;;;;7381115;19;20015;-84
2022/12/10 03:48:15;;;;;;;81.55;31.15;;;6.80;76.20;;;;;;7382791;19;20014;-83
2022/12/10 03:50:43;;;;;;;76.22;27.35;;;6.80;76.20;;;;;;7399234;19;20325;-83
2022/12/10 03:53:12;;;;;;;78.68;27.88;;;6.90;76.10;;;;;;7379035;19;20018;-83
2022/12/10 03:55:41;;;;;;;66.68;26.83;;;6.90;75.90;;;;;;7380754;19;20024;-83
2022/12/10 03:58:10;;;;;;;71.35;27.70;;;6.90;75.70;;;;;;7379788;19;20070;-84
2022/12/10 04:00:38;;;;;;;74.15;25.42;;;6.80;75.70;;;;;;7380037;19;20031;-83
2022/12/10 04:03:07;;;;;;;64.85;25.73;;;6.40;75.90;;;;;;7381587;19;20083;-83
2022/12/10 04:05:39;;;;;;;69.88;25.48;;;6.40;76.90;;;;;;7401304;19;20085;-83
2022/12/10 04:08:08;;;;;;;147.80;28.55;;;6.50;77.00;;;;;;7380777;19;20500;-83
2022/12/10 04:10:39;;;;;;;66.93;25.23;;;6.50;77.10;;;;;;7380754;19;20105;-85
2022/12/10 04:18:29;;;;;;;64.43;26.50;;;6.60;76.80;;;;;;7383876;19;20101;-84
2022/12/10 04:29:04;;;;;;;64.85;22.48;;;6.80;76.30;;;;;;7386302;19;20041;-84
2022/12/10 04:31:33;;;;;;;50.38;21.70;;;6.80;76.30;;;;;;7382923;19;20010;-84
2022/12/10 04:34:02;;;;;;;62.03;22.85;;;6.70;76.50;;;;;;7386033;19;20011;-84
2022/12/10 04:36:33;;;;;;;53.50;22.92;;;6.70;76.30;;;;;;7390752;19;20011;-84
2022/12/10 04:39:02;;;;;;;;;;;6.70;75.70;;;;;;7387523;19;20022;-84
2022/12/10 04:41:30;;;;;;;62.15;23.20;;;6.80;75.80;;;;;;7405730;19;19943;-85
2022/12/10 04:43:59;;;;;;;57.97;21.98;;;6.80;75.80;;;;;;7393755;19;20043;-88
2022/12/10 04:46:28;;;;;;;48.97;20.98;;;6.80;75.50;;;;;;7385640;19;20035;-87
2022/12/10 04:48:57;;;;;;;49.45;21.50;;;6.80;75.50;;;;;;7381702;19;20010;-88
2022/12/10 04:51:25;;;;;;;60.40;22.17;;;6.80;75.40;;;;;;7380352;19;20073;-90
2022/12/10 04:53:57;;;;;;;61.90;22.98;;;6.90;75.80;;;;;;7379560;19;20515;-90
2022/12/10 04:56:25;;;;;;;;;;;6.80;75.20;;;;;;7403501;19;20499;-88
2022/12/10 04:58:54;;;;;;;48.95;19.33;;;6.90;75.20;;;;;;7390812;19;20315;-89
2022/12/10 05:01:23;;;;;;;54.65;22.10;;;6.70;75.00;;;;;;7400213;19;20014;-90
2022/12/10 05:03:52;;;;;;;53.85;20.95;;;6.60;75.20;;;;;;7393641;19;20022;-88
2022/12/10 05:06:22;;;;;;;57.03;22.40;;;6.70;75.50;;;;;;7390205;19;20014;-88
2022/12/10 05:08:51;;;;;;;53.08;21.08;;;6.50;76.10;;;;;;7385796;19;20019;-87
2022/12/10 05:11:25;;;;;;;57.42;22.42;;;6.50;76.00;;;;;;7399459;19;20022;-89
2022/12/10 05:13:55;;;;;;;62.28;22.85;;;6.60;76.10;;;;;;7376798;19;20014;-88
2022/12/10 05:16:25;;;;;;;48.95;20.42;;;6.50;76.00;;;;;;7377621;19;20014;-88
2022/12/10 05:18:54;;;;;;;62.13;21.67;;;6.50;75.80;;;;;;7376354;19;20024;-88
2022/12/10 05:23:27;;;;;;;54.78;21.33;;;6.50;75.80;;;;;;7375357;19;20384;-89
2022/12/10 05:24:11;;;;;;;48.75;20.65;;;6.50;75.80;;;;;;7377639;19;20105;-88
2022/12/10 05:26:43;;;;;;;52.40;21.02;;;6.40;75.70;;;;;;7398630;19;20014;-89
2022/12/10 05:29:12;;;;;;;55.25;21.52;;;6.40;75.80;;;;;;7381290;19;20058;-88
2022/12/10 05:31:40;;;;;;;52.97;20.67;;;6.40;75.80;;;;;;7385120;19;20026;-88
2022/12/10 05:34:10;;;;;;;49.40;20.50;;;6.40;75.80;;;;;;7387289;19;20031;-89
2022/12/10 05:36:39;;;;;;;43.67;18.95;;;6.50;76.00;;;;;;7383301;19;20467;-87
2022/12/10 05:39:08;;;;;;;48.85;19.92;;;6.40;75.50;;;;;;7376757;19;20022;-88
2022/12/10 05:41:39;;;;;;;49.95;21.05;;;6.20;76.30;;;;;;7396779;19;20081;-88
2022/12/10 05:44:12;;;;;;;55.75;19.77;;;6.20;76.40;;;;;;7379426;19;20102;-89
2022/12/10 05:46:41;;;;;;;49.75;19.52;;;6.20;76.60;;;;;;7374713;19;20026;-88
2022/12/10 05:49:10;;;;;;;48.70;20.98;;;6.20;76.70;;;;;;7377770;19;20059;-89
2022/12/10 05:51:40;;;;;;;48.70;19.10;;;6.20;76.40;;;;;;7376640;19;20022;-88
2022/12/10 05:54:10;;;;;;;48.72;18.95;;;6.20;76.40;;;;;;7379117;19;20020;-88
2022/12/10 05:56:39;;;;;;;47.30;20.48;;;6.20;76.20;;;;;;7405391;19;20014;-88
2022/12/10 05:59:11;;;;;;;43.38;18.08;;;6.30;76.10;;;;;;7381973;19;20056;-88
2022/12/10 06:01:40;;;;;;;47.10;20.73;;;6.30;76.00;;;;;;7379412;19;20010;-88
2022/12/10 06:04:09;;;;;;;55.45;21.33;;;6.30;76.00;;;;;;7375258;19;20022;-88
2022/12/10 06:06:40;;;;;;;53.10;19.83;;;6.30;76.00;;;;;;7376242;19;20018;-88
2022/12/10 06:09:10;;;;;;;49.10;19.02;;;6.40;75.80;;;;;;7377192;19;20022;-88
2022/12/10 06:11:39;;;;;;;40.60;14.35;;;6.40;75.50;;;;;;7397912;19;20026;-88
2022/12/10 06:14:11;;;;;;;51.75;20.27;;;6.50;75.70;;;;;;7377783;19;20015;-88
2022/12/10 06:16:41;;;;;;;47.53;19.10;;;6.50;75.60;;;;;;7378082;19;20023;-87
2022/12/10 06:19:09;;;;;;;46.65;19.15;;;6.50;75.30;;;;;;7377561;19;20010;-87
2022/12/10 06:21:38;;;;;;;47.40;18.98;;;6.50;75.00;;;;;;7381410;19;20014;-87
2022/12/10 06:24:08;;;;;;;52.00;19.70;;;6.50;75.40;;;;;;7391906;19;20062;-86
2022/12/10 06:26:37;;;;;;;44.33;18.20;;;6.60;75.50;;;;;;7419351;19;20010;-86
2022/12/10 06:29:07;;;;;;;41.28;18.10;;;6.60;75.20;;;;;;7387533;19;20018;-87
2022/12/10 06:31:38;;;;;;;45.38;18.92;;;6.60;74.70;;;;;;7379950;19;20015;-87
2022/12/10 06:34:07;;;;;;;46.97;17.40;;;6.60;74.90;;;;;;7381718;19;20019;-86
2022/12/10 06:36:36;;;;;;;40.05;18.25;;;6.60;74.80;;;;;;7383404;19;20031;-86
2022/12/10 06:39:05;;;;;;;45.92;16.58;;;6.70;74.70;;;;;;7377596;19;20031;-87
2022/12/10 06:41:34;;;;;;;39.58;17.40;;;6.60;74.40;;;;;;7399496;19;20464;-87
2022/12/10 06:44:03;;;;;;;42.30;17.20;;;6.50;74.70;;;;;;7375303;19;20070;-87
2022/12/10 06:46:31;;;;;;;36.38;16.95;;;6.40;74.90;;;;;;7375910;19;20346;-86
2022/12/10 06:49:03;;;;;;;40.72;18.00;;;6.30;75.10;;;;;;7381134;19;20028;-87
2022/12/10 06:51:31;;;;;;;43.70;17.67;;;6.30;75.30;;;;;;7380631;19;20031;-87
2022/12/10 06:54:00;;;;;;;42.88;17.08;;;6.40;75.20;;;;;;7380493;19;20014;-86
2022/12/10 06:56:29;;;;;;;43.90;18.27;;;6.30;75.10;;;;;;7413440;19;20025;-87
2022/12/10 06:58:58;;;;;;;36.95;16.33;;;6.40;75.20;;;;;;7401403;19;20011;-88
2022/12/10 07:01:28;;;;;;;37.60;16.50;;;6.40;75.00;;;;;;7393419;19;20050;-89
2022/12/10 07:03:59;;;;;;;36.23;15.60;;;6.40;75.00;;;;;;7388785;19;20019;-88
2022/12/10 07:06:30;;;;;;;31.83;14.68;;;6.50;75.10;;;;;;7386043;19;20010;-86
2022/12/10 07:08:59;;;;;;;37.30;15.95;;;6.50;74.90;;;;;;7387724;19;20018;-89
2022/12/10 07:11:30;;;;;;;41.78;16.52;;;6.60;74.90;;;;;;7414536;19;20032;-89
2022/12/10 07:13:59;;;;;;;33.23;15.60;;;6.70;74.70;;;;;;7396518;19;20011;-89
2022/12/10 07:16:29;;;;;;;35.30;14.95;;;6.70;74.30;;;;;;7393765;19;20341;-88
2022/12/10 07:19:00;;;;;;;36.63;16.15;;;6.80;74.10;;;;;;7390280;19;20010;-89
2022/12/10 07:21:33;;;;;;;31.45;14.77;;;6.80;73.80;;;;;;7388040;19;20010;-89
2022/12/10 07:24:05;;;;;;;38.60;15.60;;;6.80;73.90;;;;;;7386691;19;20013;-88
2022/12/10 07:26:37;;;;;;;39.05;15.95;;;6.80;73.80;;;;;;7406568;19;20039;-89
2022/12/10 07:29:07;;;;;;;33.38;14.75;;;6.70;73.60;;;;;;7383507;19;20086;-88
2022/12/10 07:31:36;;;;;;;42.10;15.98;;;6.70;73.60;;;;;;7389808;19;20430;-92
2022/12/10 07:34:05;;;;;;;38.67;16.33;;;6.60;73.60;;;;;;7397753;19;20031;-91
2022/12/10 07:36:37;;;;;;;39.28;16.52;;;6.60;74.00;;;;;;7397936;19;20035;-91
2022/12/10 07:39:07;;;;;;;;;;;6.60;74.20;;;;;;7401019;19;20015;-90
2022/12/10 07:41:37;;;;;;;472.85;29.33;;;6.60;74.10;;;;;;7425259;19;19919;-87
2022/12/10 07:44:08;;;;;;;46.80;16.77;;;6.60;74.90;;;;;;7394061;19;20015;-87
2022/12/10 07:46:36;;;;;;;35.83;16.60;;;6.70;74.90;;;;;;7390676;19;20131;-88
2022/12/10 07:49:06;;;;;;;41.85;17.05;;;6.60;74.30;;;;;;7400811;19;20869;-88
2022/12/10 07:51:37;;;;;;;43.03;18.45;;;6.60;75.60;;;;;;7397334;19;20330;-87
2022/12/10 07:54:06;;;;;;;;;;;6.60;74.70;;;;;;7392692;19;20044;-87
2022/12/10 07:56:34;;;;;;;42.95;17.85;;;6.80;74.60;;;;;;7412403;19;19944;-88
2022/12/10 07:59:03;;;;;;;38.20;17.90;;;6.70;74.20;;;;;;7394533;19;20023;-87
2022/12/10 08:01:32;;;;;;;45.80;18.73;;;6.70;74.00;;;;;;7390620;19;20047;-89
2022/12/10 08:04:01;;;;;;;43.95;16.80;;;6.70;74.00;;;;;;7386728;19;20035;-89
2022/12/10 08:06:31;;;;;;;37.38;15.90;;;6.70;74.00;;;;;;7391854;19;20010;-89
2022/12/10 08:09:03;;;;;;;37.42;16.10;;;6.70;73.80;;;;;;7388175;19;20014;-88
2022/12/10 08:11:32;;;;;;;36.25;16.42;;;6.70;74.10;;;;;;7420356;19;20027;-89
2022/12/10 08:14:01;;;;;;;36.60;16.13;;;6.70;74.30;;;;;;7387474;19;20925;-88
2022/12/10 08:16:32;;;;;;;35.42;15.60;;;6.70;74.40;;;;;;7386895;19;20022;-89
2022/12/10 08:19:03;;;;;;;35.03;14.55;;;6.80;74.20;;;;;;7385158;19;20098;-88
2022/12/10 08:21:34;;;;;;;41.33;15.05;;;6.90;74.10;;;;;;7383193;19;20027;-88
2022/12/10 08:24:06;;;;;;;34.03;15.20;;;6.90;73.80;;;;;;7384299;19;20015;-89
2022/12/10 08:26:35;;;;;;;34.95;15.65;;;6.80;73.60;;;;;;7404055;19;20018;-88
2022/12/10 08:29:04;;;;;;;35.55;15.35;;;6.70;73.70;;;;;;7382822;19;20037;-89
2022/12/10 08:31:33;;;;;;;36.42;16.17;;;6.60;74.10;;;;;;7383293;19;20456;-88
2022/12/10 08:34:02;;;;;;;37.65;16.08;;;6.70;74.50;;;;;;7383795;19;20011;-88
2022/12/10 08:36:31;;;;;;;33.25;15.85;;;6.80;74.40;;;;;;7387562;19;20043;-86
2022/12/10 08:39:00;;;;;;;39.75;15.75;;;6.80;74.10;;;;;;7378953;19;20086;-87
2022/12/10 08:41:31;;;;;;;35.08;15.68;;;6.90;74.30;;;;;;7398642;19;20035;-87
2022/12/10 08:44:00;;;;;;;;;;;7.00;73.90;;;;;;7379657;19;20040;-87
2022/12/10 08:46:28;;;;;;;35.97;15.18;;;7.10;73.50;;;;;;7381881;19;20349;-87
2022/12/10 08:48:57;;;;;;;34.28;15.25;;;7.10;73.00;;;;;;7379017;19;20060;-87
2022/12/10 08:51:26;;;;;;;34.60;15.88;;;7.20;73.10;;;;;;7378513;19;20015;-87
2022/12/10 08:53:55;;;;;;;40.92;16.17;;;7.20;72.90;;;;;;7375966;19;20018;-86
2022/12/10 08:56:23;;;;;;;42.25;16.58;;;7.20;72.90;;;;;;7402614;19;20022;-87
2022/12/10 08:58:55;;;;;;;38.85;15.70;;;7.30;72.90;;;;;;7380049;19;20022;-87
2022/12/10 09:01:24;;;;;;;31.10;15.05;;;7.30;72.80;;;;;;7381426;19;20027;-86
2022/12/10 09:03:53;;;;;;;37.75;15.95;;;7.30;72.60;;;;;;7379560;19;20010;-86
2022/12/10 09:06:24;;;;;;;37.28;15.23;;;7.40;72.40;;;;;;7379397;19;20014;-87
2022/12/10 09:08:53;;;;;;;43.15;15.18;;;7.40;72.20;;;;;;7379467;19;20014;-87
2022/12/10 09:11:25;;;;;;;30.02;14.35;;;7.40;71.70;;;;;;7402278;19;20027;-87
2022/12/10 09:13:57;;;;;;;33.42;15.25;;;7.40;72.60;;;;;;7392498;19;20035;-87
2022/12/10 09:16:31;;;;;;;40.92;15.75;;;7.40;72.00;;;;;;7397388;19;20015;-87
2022/12/10 09:19:01;;;;;;;37.53;16.73;;;7.40;71.40;;;;;;7385327;19;20471;-87
2022/12/10 09:21:30;;;;;;;35.80;14.73;;;7.30;71.60;;;;;;7379718;19;20010;-86
2022/12/10 09:24:00;;;;;;;36.90;15.43;;;7.30;71.60;;;;;;7382370;19;20044;-85
2022/12/10 09:26:29;;;;;;;30.15;15.23;;;7.30;71.50;;;;;;7415007;19;20017;-85
2022/12/10 09:29:01;;;;;;;36.28;16.15;;;7.30;71.60;;;;;;7382998;19;20466;-86
2022/12/10 09:31:29;;;;;;;;;;;7.40;71.60;;;;;;7382732;19;20031;-87
2022/12/10 09:33:58;;;;;;;29.88;13.73;;;7.50;71.70;;;;;;7380925;19;19939;-87
2022/12/10 09:36:27;;;;;;;31.42;14.57;;;7.40;71.30;;;;;;7380562;19;20027;-87
2022/12/10 09:38:56;;;;;;;38.65;15.40;;;7.40;71.40;;;;;;7380041;19;20014;-86
2022/12/10 09:41:48;;;;;;;42.78;15.13;;;7.40;71.60;;;;;;7402518;19;20417;-87
2022/12/10 09:44:33;;;;;;;33.45;15.18;;;7.30;72.30;;;;;;7380108;19;20035;-86
2022/12/10 09:47:05;;;;;;;40.03;15.60;;;7.30;73.00;;;;;;7378659;19;20462;-87
2022/12/10 09:49:49;;;;;;;34.45;14.82;;;7.30;72.30;;;;;;7381166;19;20027;-85
2022/12/10 09:52:21;;;;;;;36.42;15.23;;;7.30;71.90;;;;;;7387052;19;20015;-86
2022/12/10 09:54:55;;;;;;;34.45;14.25;;;7.40;71.30;;;;;;7387835;19;20002;-87
2022/12/10 09:57:30;;;;;;;31.38;14.23;;;7.40;70.70;;;;;;7393703;19;20044;-86
2022/12/10 10:00:07;;;;;;;32.35;14.77;;;7.40;70.80;;;;;;7383402;19;20027;-87
2022/12/10 10:02:35;;;;;;;36.05;15.50;;;7.50;70.70;;;;;;7401224;19;20022;-86
2022/12/10 10:05:14;;;;;;;38.40;15.30;;;7.60;71.00;;;;;;7379905;19;20349;-87
2022/12/10 10:07:47;;;;;;;27.35;13.63;;;7.70;70.90;;;;;;7380107;19;20015;-88
2022/12/10 10:10:25;;;;;;;33.85;14.88;;;7.70;70.10;;;;;;7387893;19;20029;-89
2022/12/10 10:12:56;;;;;;;33.50;14.85;;;7.60;69.90;;;;;;7386882;19;20060;-89
2022/12/10 10:15:32;;;;;;;32.05;14.95;;;7.60;69.40;;;;;;7383718;19;20018;-89
2022/12/10 10:18:07;;;;;;;34.78;14.88;;;7.60;69.30;;;;;;7380139;19;20035;-89
2022/12/10 10:20:37;;;;;;;32.92;14.77;;;7.60;69.70;;;;;;7405532;19;20029;-89
2022/12/10 10:23:05;;;;;;;38.42;16.23;;;7.70;69.80;;;;;;7384175;19;20033;-83
2022/12/10 10:25:34;;;;;;;27.70;14.27;;;7.70;69.80;;;;;;7373932;19;20043;-82
2022/12/10 10:28:03;;;;;;;32.08;14.90;;;7.60;69.80;;;;;;7373691;19;20022;-81
2022/12/10 10:30:34;;;;;;;37.30;14.45;;;7.70;70.00;;;;;;7376460;19;20015;-84
2022/12/10 10:33:11;;;;;;;30.13;13.93;;;7.70;69.70;;;;;;7378050;19;20056;-86
2022/12/10 10:35:47;;;;;;;33.88;14.48;;;7.80;69.20;;;;;;7394365;19;20031;-85
2022/12/10 10:38:23;;;;;;;37.53;12.80;;;7.70;69.20;;;;;;7373925;19;20015;-84
2022/12/10 10:40:54;;;;;;;32.92;12.82;;;7.60;69.00;;;;;;7373765;19;20024;-84
2022/12/10 10:43:25;;;;;;;;;;;7.60;69.10;;;;;;7379618;19;20022;-83
2022/12/10 10:46:00;;;;;;;36.73;12.40;;;7.60;68.90;;;;;;7377594;19;20241;-84
2022/12/10 10:48:30;;;;;;;26.25;13.13;;;7.60;68.90;;;;;;7378338;19;20244;-84
2022/12/10 10:51:09;;;;;;;27.65;12.70;;;7.60;68.70;;;;;;7375491;19;20019;-84
2022/12/10 10:53:45;;;;;;;31.92;12.43;;;7.50;68.90;;;;;;7396204;19;20055;-84
2022/12/10 10:56:19;;;;;;;26.88;12.07;;;7.40;69.70;;;;;;7376853;19;20027;-84
2022/12/10 10:58:56;;;;;;;30.45;13.13;;;7.50;69.20;;;;;;7374591;19;20015;-85
2022/12/10 11:01:45;;;;;;;30.15;13.30;;;7.60;69.70;;;;;;7374824;19;20519;-85
2022/12/10 11:04:15;;;;;;;31.10;14.55;;;7.80;70.00;;;;;;7373640;19;20044;-85
2022/12/10 11:06:45;;;;;;;28.40;13.73;;;7.90;69.70;;;;;;7373799;19;20487;-84
2022/12/10 11:09:22;;;;;;;38.22;14.60;;;8.00;69.40;;;;;;7373987;19;20010;-85
2022/12/10 11:11:53;;;;;;;30.98;14.65;;;8.00;68.90;;;;;;7377259;19;20050;-85
2022/12/10 11:14:27;;;;;;;34.35;14.20;;;8.00;69.10;;;;;;7396885;19;20019;-85
2022/12/10 11:17:05;;;;;;;34.95;13.82;;;8.10;68.90;;;;;;7372945;19;20023;-83
2022/12/10 11:19:34;;;;;;;30.75;13.10;;;8.20;69.10;;;;;;7374075;19;20015;-83
2022/12/10 11:22:19;;;;;;;30.30;13.40;;;8.20;68.00;;;;;;7374461;19;20018;-85
2022/12/10 11:24:50;;;;;;;33.28;12.75;;;8.20;67.90;;;;;;7374498;19;20440;-84
2022/12/10 11:27:27;;;;;;;32.63;12.75;;;8.20;67.70;;;;;;7370594;19;20014;-85
2022/12/10 11:30:04;;;;;;;28.08;12.05;;;8.20;67.70;;;;;;7372397;19;20018;-84
2022/12/10 11:32:52;;;;;;;25.27;12.05;;;8.20;67.40;;;;;;7393392;19;20022;-85
2022/12/10 11:35:30;;;;;;;25.40;11.63;;;8.00;67.70;;;;;;7373257;19;20027;-84
2022/12/10 11:38:09;;;;;;;25.90;11.60;;;8.00;68.10;;;;;;7374553;19;20024;-85
2022/12/10 11:40:44;;;;;;;30.55;11.88;;;7.90;69.10;;;;;;7376937;19;20324;-85
2022/12/10 11:43:36;;;;;;;27.08;12.43;;;7.90;69.80;;;;;;7382941;19;20685;-86
2022/12/10 11:46:10;;;;;;;;;;;8.00;69.40;;;;;;7382720;19;20022;-86
2022/12/10 11:48:56;;;;;;;27.08;10.77;;;8.00;68.80;;;;;;7381555;19;19919;-86
2022/12/10 11:51:33;;;;;;;29.90;11.32;;;7.80;68.10;;;;;;7385944;19;20048;-86
2022/12/10 11:54:17;;;;;;;27.88;12.00;;;7.50;69.50;;;;;;7393936;19;20018;-86
2022/12/10 11:56:51;;;;;;;32.03;11.82;;;7.40;69.30;;;;;;7409448;19;20046;-84
2022/12/10 11:59:27;;;;;;;25.33;11.65;;;7.50;69.50;;;;;;7385249;19;20024;-84
2022/12/10 12:02:09;;;;;;;28.92;12.27;;;7.50;69.60;;;;;;7391451;19;20018;-84
2022/12/10 12:04:54;;;;;;;;;;;7.50;70.00;;;;;;7399023;19;20022;-84
2022/12/10 12:07:41;;;;;;;28.67;11.43;;;7.60;69.70;;;;;;7389876;19;19951;-86
2022/12/10 12:10:45;;;;;;;28.65;12.15;;;7.30;69.60;;;;;;7385684;19;20023;-86
2022/12/10 12:13:18;;;;;;;31.80;10.85;;;7.30;69.80;;;;;;7382034;19;20018;-84
2022/12/10 12:15:52;;;;;;;26.50;11.77;;;7.30;69.60;;;;;;7379850;19;20041;-84
2022/12/10 12:18:25;;;;;;;27.60;11.55;;;7.40;69.60;;;;;;7384392;19;20013;-85
2022/12/10 12:21:00;;;;;;;26.75;12.30;;;7.40;69.70;;;;;;7384795;19;20090;-85
2022/12/10 12:23:33;;;;;;;30.05;12.10;;;7.40;69.20;;;;;;7415976;19;20032;-84
2022/12/10 12:26:08;;;;;;;25.88;12.25;;;7.40;69.50;;;;;;7383347;19;20014;-84
2022/12/10 12:28:43;;;;;;;23.58;10.70;;;7.50;69.60;;;;;;7383802;19;20019;-84
2022/12/10 12:31:16;;;;;;;31.17;11.90;;;7.60;69.50;;;;;;7381507;19;20016;-85
2022/12/10 12:33:49;;;;;;;20.73;10.35;;;7.70;69.30;;;;;;7388088;19;20028;-84
2022/12/10 12:36:24;;;;;;;29.17;10.23;;;7.80;68.90;;;;;;7387370;19;20022;-84
2022/12/10 12:38:59;;;;;;;25.77;10.32;;;7.80;68.90;;;;;;7388654;19;20029;-83
2022/12/10 12:41:37;;;;;;;24.67;10.40;;;7.80;68.60;;;;;;7403929;19;20479;-84
2022/12/10 12:44:13;;;;;;;19.65;9.98;;;7.90;68.60;;;;;;7384761;19;20088;-83
2022/12/10 12:46:46;;;;;;;20.65;10.18;;;8.00;68.60;;;;;;7381799;19;20022;-83
2022/12/10 12:49:22;;;;;;;20.90;10.43;;;8.10;68.80;;;;;;7382028;19;20333;-82
2022/12/10 12:51:57;;;;;;;30.70;11.55;;;8.10;68.90;;;;;;7379194;19;20082;-84
2022/12/10 12:54:25;;;;;;;22.15;10.18;;;8.00;68.60;;;;;;7381434;19;20022;-84
2022/12/10 12:57:04;;;;;;;21.02;10.10;;;8.00;68.00;;;;;;7378208;19;20018;-83
2022/12/10 12:59:57;;;;;;;30.48;11.50;;;8.10;68.30;;;;;;7396498;19;20055;-82
2022/12/10 13:02:46;;;;;;;25.42;11.02;;;8.10;67.90;;;;;;7369795;19;20019;-79
2022/12/10 13:05:17;;;;;;;26.40;11.80;;;8.20;67.90;;;;;;7370138;19;20334;-80
2022/12/10 13:08:32;;;;;;;21.75;10.52;;;8.40;67.80;;;;;;7369740;19;20033;-79
2022/12/10 13:11:17;;;;;;;25.80;9.48;;;8.40;67.40;;;;;;7371291;19;20010;-80
2022/12/10 13:14:21;;;;;;;17.83;9.20;;;8.50;66.80;;;;;;7370491;19;20018;-78
2022/12/10 13:17:02;;;;;;;19.38;8.63;;;8.60;66.30;;;;;;7368148;19;20027;-80
2022/12/10 13:19:32;;;;;;;20.55;9.90;;;8.50;65.70;;;;;;7373748;19;20423;-80